Time;durP1;ratioP1;P1;durP2;ratioP2;P2;SDS_P1;SDS_P2;PMS_P1;PMS_P2;Temp;Humidity;BMP_temperature;BMP_pressure;BME280_temperature;BME280_humidity;BME280_pressure;Samples;Min_cycle;Max_cycle;Signal;HPM_P1;HPM_P2
2022/08/09 00:02:24;;;;;;;;;;;25.20;99.90;;;;;;5074642;28;20365;-74
2022/08/09 00:04:49;;;;;;;;;;;25.30;99.90;;;;;;5093024;28;19915;-74
2022/08/09 00:07:15;;;;;;;;;;;25.30;99.90;;;;;;5093647;28;20362;-74
2022/08/09 00:09:41;;;;;;;;;;;25.40;99.90;;;;;;5103982;28;19916;-75
2022/08/09 00:12:07;;;;;;;;;;;25.30;99.90;;;;;;5092490;28;19912;-73
2022/08/09 00:14:33;;;;;;;;;;;25.40;99.90;;;;;;5106983;28;19908;-75
2022/08/09 00:16:59;;;;;;;;;;;25.40;99.90;;;;;;5094103;28;19908;-74
2022/08/09 00:19:24;;;;;;;;;;;25.50;99.90;;;;;;5112976;28;19947;-72
2022/08/09 00:21:50;;;;;;;;;;;25.50;99.90;;;;;;5092908;28;20350;-75
2022/08/09 00:24:16;;;;;;;;;;;25.50;99.90;;;;;;5092753;28;19908;-74
2022/08/09 00:26:41;;;;;;;;;;;25.30;99.90;;;;;;5093935;28;20328;-74
2022/08/09 00:29:07;;;;;;;;;;;25.30;99.90;;;;;;5075289;28;19999;-74
2022/08/09 00:31:33;;;;;;;;;;;25.30;99.90;;;;;;5074034;28;19912;-74
2022/08/09 00:33:58;;;;;;;;;;;25.20;99.90;;;;;;5074396;28;19916;-73
2022/08/09 00:36:24;;;;;;;;;;;25.30;99.90;;;;;;5073989;28;19920;-73
2022/08/09 00:38:50;;;;;;;;;;;25.30;99.90;;;;;;5091112;28;20343;-73
2022/08/09 00:41:17;;;;;;;;;;;25.30;99.90;;;;;;5092049;28;20004;-74
2022/08/09 00:43:43;;;;;;;;;;;25.40;99.90;;;;;;5091940;28;20062;-74
2022/08/09 00:46:08;;;;;;;;;;;25.50;99.90;;;;;;5090867;28;20431;-74
2022/08/09 00:48:35;;;;;;;;;;;25.40;99.90;;;;;;5092164;28;19908;-74
2022/08/09 00:51:06;;;;;;;;;;;25.50;99.90;;;;;;5095186;28;19919;-74
2022/08/09 00:53:32;;;;;;;;;;;25.40;99.90;;;;;;5111572;28;19912;-74
2022/08/09 00:55:58;;;;;;;;;;;25.40;99.90;;;;;;5091554;28;19969;-74
2022/08/09 00:58:24;;;;;;;;;;;25.40;99.90;;;;;;5092202;28;19912;-74
2022/08/09 01:00:51;;;;;;;;;;;25.40;99.90;;;;;;5091777;28;19908;-75
2022/08/09 01:03:37;;;;;;;;;;;25.40;99.90;;;;;;5071925;28;20407;-74
2022/08/09 01:06:10;;;;;;;;;;;25.30;99.90;;;;;;5063891;28;19909;-75
2022/08/09 01:08:46;;;;;;;;;;;25.20;99.90;;;;;;5071490;28;19995;-74
2022/08/09 01:11:11;;;;;;;;;;;25.10;99.90;;;;;;5077168;28;19920;-74
2022/08/09 01:13:47;;;;;;;;;;;25.30;99.90;;;;;;5100697;28;19934;-74
2022/08/09 01:16:13;;;;;;;;;;;25.20;99.90;;;;;;5112597;28;19915;-74
2022/08/09 01:18:41;;;;;;;;;;;25.20;99.90;;;;;;5098754;28;19908;-74
2022/08/09 01:21:19;;;;;;;;;;;25.30;99.90;;;;;;5054043;28;19909;-74
2022/08/09 01:23:45;;;;;;;;;;;25.20;99.90;;;;;;5071949;28;20023;-74
2022/08/09 01:26:20;;;;;;;;;;;25.20;99.90;;;;;;5053111;28;20385;-75
2022/08/09 01:28:47;;;;;;;;;;;25.10;99.90;;;;;;5081830;28;19908;-74
2022/08/09 01:31:15;;;;;;;;;;;25.10;99.90;;;;;;5091196;28;19912;-74
2022/08/09 01:33:43;;;;;;;;;;;24.90;99.90;;;;;;5091776;28;20295;-75
2022/08/09 01:36:20;;;;;;;;;;;24.90;99.90;;;;;;5090085;28;19908;-74
2022/08/09 01:38:47;;;;;;;;;;;24.90;99.90;;;;;;5091253;28;19916;-74
2022/08/09 01:41:14;;;;;;;;;;;24.90;99.90;;;;;;5091081;28;19935;-74
2022/08/09 01:43:42;;;;;;;;;;;25.00;99.90;;;;;;5091093;28;19908;-74
2022/08/09 01:46:08;;;;;;;;;;;25.00;99.90;;;;;;5091259;28;20285;-74
2022/08/09 01:48:34;;;;;;;;;;;25.00;99.90;;;;;;5073316;28;20276;-74
2022/08/09 01:51:01;;;;;;;;;;;25.00;99.90;;;;;;5090580;28;19908;-73
2022/08/09 01:53:27;;;;;;;;;;;24.90;99.90;;;;;;5089632;28;19952;-72
2022/08/09 01:55:53;;;;;;;;;;;24.80;99.90;;;;;;5090499;28;19963;-74
2022/08/09 01:58:19;;;;;;;;;;;24.80;99.90;;;;;;5090883;28;19908;-74
2022/08/09 02:00:45;;;;;;;;;;;24.90;99.90;;;;;;5091089;28;19930;-74
2022/08/09 02:03:12;;;;;;;;;;;24.90;99.90;;;;;;5090666;28;19912;-74
2022/08/09 02:05:39;;;;;;;;;;;24.80;99.90;;;;;;5090585;28;20316;-74
2022/08/09 02:08:08;;;;;;;;;;;24.60;99.90;;;;;;5072283;28;19908;-74
2022/08/09 02:10:38;;;;;;;;;;;24.60;99.90;;;;;;5071947;28;19920;-74
2022/08/09 02:13:05;;;;;;;;;;;24.80;99.90;;;;;;5092331;28;19920;-74
2022/08/09 02:15:37;;;;;;;;;;;24.70;99.90;;;;;;5082599;28;19912;-75
2022/08/09 02:18:03;;;;;;;;;;;24.70;99.90;;;;;;5110746;28;19908;-75
2022/08/09 02:20:31;;;;;;;;;;;24.80;99.90;;;;;;5093664;28;19915;-74
2022/08/09 02:23:19;;;;;;;;;;;24.60;99.90;;;;;;5090256;28;19922;-74
2022/08/09 02:25:46;;;;;;;;;;;24.70;99.90;;;;;;5078960;28;19916;-74
2022/08/09 02:28:15;;;;;;;;;;;24.60;99.90;;;;;;5070967;28;19915;-74
2022/08/09 02:31:00;;;;;;;;;;;24.60;99.90;;;;;;5070435;28;20366;-75
2022/08/09 02:33:28;;;;;;;;;;;24.60;99.90;;;;;;5070014;28;19919;-74
2022/08/09 02:35:57;;;;;;;;;;;24.70;99.90;;;;;;5055604;28;20390;-74
2022/08/09 02:38:26;;;;;;;;;;;24.70;99.90;;;;;;5090426;28;19975;-75
2022/08/09 02:40:54;;;;;;;;;;;24.70;99.90;;;;;;5090541;28;20319;-75
2022/08/09 02:43:22;;;;;;;;;;;24.70;99.90;;;;;;5071876;28;19916;-75
2022/08/09 02:45:48;;;;;;;;;;;24.60;99.90;;;;;;5071990;28;20553;-75
2022/08/09 02:48:15;;;;;;;;;;;24.60;99.90;;;;;;5090711;28;19914;-74
2022/08/09 02:50:43;;;;;;;;;;;24.60;99.90;;;;;;5090390;28;19908;-74
2022/08/09 02:53:11;;;;;;;;;;;24.60;99.90;;;;;;5090248;28;20035;-74
2022/08/09 02:55:39;;;;;;;;;;;24.60;99.90;;;;;;5092750;28;20254;-73
2022/08/09 02:58:05;;;;;;;;;;;24.70;99.90;;;;;;5094380;28;20392;-74
2022/08/09 03:00:31;;;;;;;;;;;24.50;99.90;;;;;;5075779;28;20385;-75
2022/08/09 03:02:57;;;;;;;;;;;24.50;99.90;;;;;;5094789;28;19919;-74
2022/08/09 03:05:23;;;;;;;;;;;24.50;99.90;;;;;;5094929;28;20088;-74
2022/08/09 03:07:50;;;;;;;;;;;24.30;99.90;;;;;;5096152;28;20015;-73
2022/08/09 03:10:15;;;;;;;;;;;24.40;99.90;;;;;;5113793;28;19931;-73
2022/08/09 03:12:42;;;;;;;;;;;24.40;99.90;;;;;;5115717;28;19912;-74
2022/08/09 03:15:08;;;;;;;;;;;24.40;99.90;;;;;;5115490;28;19915;-74
2022/08/09 03:17:35;;;;;;;;;;;24.30;99.90;;;;;;5122008;28;19912;-74
2022/08/09 03:20:01;;;;;;;;;;;24.30;99.90;;;;;;5072172;28;20468;-75
2022/08/09 03:22:29;;;;;;;;;;;24.40;99.90;;;;;;5085154;28;19923;-74
2022/08/09 03:24:55;;;;;;;;;;;24.30;99.90;;;;;;5082295;28;19957;-74
2022/08/09 03:27:22;;;;;;;;;;;24.20;99.90;;;;;;5106915;28;20002;-73
2022/08/09 03:29:48;;;;;;;;;;;24.20;99.90;;;;;;5093843;28;19908;-75
2022/08/09 03:32:15;;;;;;;;;;;24.10;99.90;;;;;;5093512;28;19965;-73
2022/08/09 03:34:40;;;;;;;;;;;24.20;99.90;;;;;;5070762;28;20129;-74
2022/08/09 03:37:06;;;;;;;;;;;24.20;99.90;;;;;;5073201;28;19915;-75
2022/08/09 03:39:32;;;;;;;;;;;23.90;99.90;;;;;;5072977;28;20393;-75
2022/08/09 03:41:57;;;;;;;;;;;23.90;99.90;;;;;;5073287;28;19916;-74
2022/08/09 03:44:24;;;;;;;;;;;23.80;99.90;;;;;;5080228;28;20482;-75
2022/08/09 03:46:50;;;;;;;;;;;23.90;99.90;;;;;;5093108;28;20006;-74
2022/08/09 03:49:17;;;;;;;;;;;23.90;99.90;;;;;;5092994;28;19908;-74
2022/08/09 03:51:44;;;;;;;;;;;23.90;99.90;;;;;;5092610;28;19986;-74
2022/08/09 03:54:10;;;;;;;;;;;23.90;99.90;;;;;;5074655;28;20336;-73
2022/08/09 03:56:36;;;;;;;;;;;23.80;99.90;;;;;;5092986;28;19908;-74
2022/08/09 03:59:02;;;;;;;;;;;23.80;99.90;;;;;;5092987;28;19919;-74
2022/08/09 04:01:28;;;;;;;;;;;23.80;99.90;;;;;;5092987;28;20007;-75
2022/08/09 04:03:55;;;;;;;;;;;23.90;99.90;;;;;;5094322;28;20013;-75
2022/08/09 04:06:20;;;;;;;;;;;23.80;99.90;;;;;;5093787;28;20313;-74
2022/08/09 04:08:46;;;;;;;;;;;23.90;99.90;;;;;;5067949;28;19923;-74
2022/08/09 04:11:12;;;;;;;;;;;23.90;99.90;;;;;;5072588;28;20380;-74
2022/08/09 04:13:37;;;;;;;;;;;24.10;99.90;;;;;;5085664;28;20002;-75
2022/08/09 04:16:03;;;;;;;;;;;24.00;99.90;;;;;;5085205;28;19998;-74
2022/08/09 04:18:29;;;;;;;;;;;23.90;99.90;;;;;;5105051;28;19950;-75
2022/08/09 04:20:54;;;;;;;;;;;24.00;99.90;;;;;;5074698;28;20292;-74
2022/08/09 04:23:20;;;;;;;;;;;23.80;99.90;;;;;;5094000;28;19920;-75
2022/08/09 04:25:45;;;;;;;;;;;23.90;99.90;;;;;;5075832;28;19915;-74
2022/08/09 04:28:11;;;;;;;;;;;24.00;99.90;;;;;;5094665;28;19912;-75
2022/08/09 04:30:37;;;;;;;;;;;24.00;99.90;;;;;;5095024;28;19962;-75
2022/08/09 04:33:02;;;;;;;;;;;24.00;99.90;;;;;;5095187;28;19919;-74
2022/08/09 04:35:28;;;;;;;;;;;23.80;99.90;;;;;;5092917;28;20011;-73
2022/08/09 04:37:54;;;;;;;;;;;23.80;99.90;;;;;;5092310;28;20390;-75
2022/08/09 04:40:19;;;;;;;;;;;23.80;99.90;;;;;;5092447;28;19966;-75
2022/08/09 04:42:45;;;;;;;;;;;23.70;99.90;;;;;;5091569;28;19915;-75
2022/08/09 04:45:11;;;;;;;;;;;23.80;99.90;;;;;;5073619;28;19920;-73
2022/08/09 04:47:37;;;;;;;;;;;23.80;99.90;;;;;;5073509;28;19908;-75
2022/08/09 04:50:03;;;;;;;;;;;23.90;99.90;;;;;;5092283;28;20002;-75
2022/08/09 04:52:29;;;;;;;;;;;24.00;99.90;;;;;;5091747;28;20288;-74
2022/08/09 04:54:55;;;;;;;;;;;23.90;99.90;;;;;;5093152;28;19916;-75
2022/08/09 04:57:21;;;;;;;;;;;24.00;99.90;;;;;;5092993;28;19918;-75
2022/08/09 04:59:47;;;;;;;;;;;24.00;99.90;;;;;;5084192;28;19912;-74
2022/08/09 05:02:13;;;;;;;;;;;24.10;99.90;;;;;;5095042;28;19920;-74
2022/08/09 05:04:38;;;;;;;;;;;24.20;99.90;;;;;;5094789;28;19912;-74
2022/08/09 05:07:04;;;;;;;;;;;24.20;99.90;;;;;;5091600;28;19970;-76
2022/08/09 05:09:30;;;;;;;;;;;24.40;99.90;;;;;;5091444;28;19970;-76
2022/08/09 05:11:59;;;;;;;;;;;24.40;99.90;;;;;;5074461;28;19912;-74
2022/08/09 05:14:24;;;;;;;;;;;24.30;99.90;;;;;;5093687;28;20352;-74
2022/08/09 05:16:50;;;;;;;;;;;24.30;99.90;;;;;;5087509;28;20004;-74
2022/08/09 05:19:20;;;;;;;;;;;24.30;99.90;;;;;;5091405;28;19944;-73
2022/08/09 05:21:46;;;;;;;;;;;24.30;99.90;;;;;;5090155;28;20333;-76
2022/08/09 05:24:11;;;;;;;;;;;24.30;99.90;;;;;;5105693;28;19920;-73
2022/08/09 05:26:37;;;;;;;;;;;24.40;99.90;;;;;;5093867;28;19931;-76
2022/08/09 05:29:03;;;;;;;;;;;24.20;99.90;;;;;;5091169;28;19991;-75
2022/08/09 05:31:28;;;;;;;;;;;24.00;99.90;;;;;;5090866;28;19947;-74
2022/08/09 05:33:54;;;;;;;;;;;24.20;99.90;;;;;;5094956;28;19963;-76
2022/08/09 05:36:19;;;;;;;;;;;24.10;99.90;;;;;;5091140;28;19916;-74
2022/08/09 05:38:45;;;;;;;;;;;24.20;99.90;;;;;;5072907;28;19916;-75
2022/08/09 05:41:10;;;;;;;;;;;24.30;99.90;;;;;;5091267;28;19919;-75
2022/08/09 05:43:36;;;;;;;;;;;24.30;99.90;;;;;;5091425;28;19995;-76
2022/08/09 05:46:02;;;;;;;;;;;24.40;99.90;;;;;;5090783;28;19915;-74
2022/08/09 05:48:28;;;;;;;;;;;24.30;99.90;;;;;;5073233;28;19946;-76
2022/08/09 05:50:53;;;;;;;;;;;24.20;99.90;;;;;;5072643;28;19940;-74
2022/08/09 05:53:19;;;;;;;;;;;24.20;99.90;;;;;;5091510;28;19978;-74
2022/08/09 05:55:45;;;;;;;;;;;24.40;99.90;;;;;;5091102;28;20003;-75
2022/08/09 05:58:11;;;;;;;;;;;24.50;99.90;;;;;;5090887;28;19935;-76
2022/08/09 06:00:36;;;;;;;;;;;24.40;99.90;;;;;;5090914;28;20422;-74
2022/08/09 06:03:02;;;;;;;;;;;24.50;99.90;;;;;;5072652;28;19908;-75
2022/08/09 06:05:30;;;;;;;;;;;24.50;99.90;;;;;;5090709;28;19915;-74
2022/08/09 06:07:56;;;;;;;;;;;24.60;99.90;;;;;;5082424;28;19909;-74
2022/08/09 06:10:36;;;;;;;;;;;24.70;99.90;;;;;;5079314;28;19908;-74
2022/08/09 06:13:12;;;;;;;;;;;24.80;99.90;;;;;;5109238;28;20349;-75
2022/08/09 06:15:37;;;;;;;;;;;24.70;99.90;;;;;;5111178;28;19908;-73
2022/08/09 06:18:03;;;;;;;;;;;24.60;99.90;;;;;;5098364;28;20038;-75
2022/08/09 06:20:29;;;;;;;;;;;24.80;99.90;;;;;;5091367;28;20400;-75
2022/08/09 06:22:55;;;;;;;;;;;24.90;99.90;;;;;;5076795;28;19915;-75
2022/08/09 06:25:20;;;;;;;;;;;25.00;99.90;;;;;;5086260;28;20408;-75
2022/08/09 06:27:46;;;;;;;;;;;25.10;99.90;;;;;;5106851;28;19915;-75
2022/08/09 06:30:12;;;;;;;;;;;25.10;99.90;;;;;;5113196;28;19992;-76
2022/08/09 06:32:37;;;;;;;;;;;25.10;99.90;;;;;;5115140;28;19944;-75
2022/08/09 06:35:03;;;;;;;;;;;25.10;99.90;;;;;;5115420;28;19981;-76
2022/08/09 06:37:29;;;;;;;;;;;25.20;99.90;;;;;;5115598;28;20250;-75
2022/08/09 06:39:55;;;;;;;;;;;25.30;99.90;;;;;;5115843;28;19907;-77
2022/08/09 06:42:20;;;;;;;;;;;25.30;99.90;;;;;;5102046;28;20439;-75
2022/08/09 06:44:46;;;;;;;;;;;25.30;99.90;;;;;;5094904;28;19962;-76
2022/08/09 06:47:12;;;;;;;;;;;25.40;99.90;;;;;;5094827;28;19977;-75
2022/08/09 06:49:38;;;;;;;;;;;25.40;99.90;;;;;;5095139;28;19912;-75
2022/08/09 06:52:04;;;;;;;;;;;25.50;99.90;;;;;;5094700;28;19912;-75
2022/08/09 06:54:30;;;;;;;;;;;25.50;99.90;;;;;;5076314;28;20407;-76
2022/08/09 06:56:55;;;;;;;;;;;25.50;99.90;;;;;;5095077;28;19912;-76
2022/08/09 06:59:21;;;;;;;;;;;25.50;99.90;;;;;;5094652;28;20035;-76
2022/08/09 07:01:47;;;;;;;;;;;25.50;99.90;;;;;;5094661;28;20020;-75
2022/08/09 07:04:12;;;;;;;;;;;25.60;99.90;;;;;;5094595;28;19970;-76
2022/08/09 07:06:38;;;;;;;;;;;25.70;99.90;;;;;;5094647;28;20501;-74
2022/08/09 07:09:03;;;;;;;;;;;25.70;99.90;;;;;;5094511;28;19912;-76
2022/08/09 07:11:29;;;;;;;;;;;25.80;99.90;;;;;;5075974;28;19970;-75
2022/08/09 07:13:54;;;;;;;;;;;25.80;99.90;;;;;;5094587;28;19908;-74
2022/08/09 07:16:20;;;;;;;;;;;25.80;99.90;;;;;;5098042;28;19952;-75
2022/08/09 07:18:46;;;;;;;;;;;26.00;99.90;;;;;;5115689;28;19955;-76
2022/08/09 07:21:11;;;;;;;;;;;26.00;99.90;;;;;;5116317;28;20306;-75
2022/08/09 07:23:40;;;;;;;;;;;26.10;99.90;;;;;;5119918;28;19931;-75
2022/08/09 07:26:06;;;;;;;;;;;26.10;99.90;;;;;;5086239;28;19908;-75
2022/08/09 07:28:31;;;;;;;;;;;26.20;99.90;;;;;;5119961;28;19915;-76
2022/08/09 07:30:57;;;;;;;;;;;26.20;99.90;;;;;;5119963;28;19907;-77
2022/08/09 07:33:23;;;;;;;;;;;26.30;99.90;;;;;;5102407;28;19919;-75
2022/08/09 07:35:48;;;;;;;;;;;26.40;99.90;;;;;;5094019;28;20022;-75
2022/08/09 07:38:14;;;;;;;;;;;26.50;99.90;;;;;;5095509;28;20003;-76
2022/08/09 07:40:40;;;;;;;;;;;26.50;99.90;;;;;;5095230;28;19908;-76
2022/08/09 07:43:05;;;;;;;;;;;26.60;99.90;;;;;;5094329;28;19974;-75
2022/08/09 07:45:31;;;;;;;;;;;26.60;99.90;;;;;;5076268;28;19919;-75
2022/08/09 07:47:58;;;;;;;;;;;26.50;99.90;;;;;;5099841;28;19908;-75
2022/08/09 07:50:24;;;;;;;;;;;26.50;99.90;;;;;;5083524;28;19920;-76
2022/08/09 07:52:50;;;;;;;;;;;26.60;99.90;;;;;;5085256;28;19947;-75
2022/08/09 07:55:19;;;;;;;;;;;26.80;99.90;;;;;;5065066;28;19908;-75
2022/08/09 07:57:47;;;;;;;;;;;26.80;99.90;;;;;;5088279;28;19909;-75
2022/08/09 08:00:14;;;;;;;;;;;26.90;99.90;;;;;;5084829;28;20021;-75
2022/08/09 08:02:40;;;;;;;;;;;26.70;99.90;;;;;;5088898;28;19935;-74
2022/08/09 08:05:06;;;;;;;;;;;26.70;99.90;;;;;;5087564;28;19908;-75
2022/08/09 08:07:31;;;;;;;;;;;26.80;99.90;;;;;;5079185;28;20001;-76
2022/08/09 08:09:57;;;;;;;;;;;26.80;99.90;;;;;;5087508;28;19913;-76
2022/08/09 08:12:24;;;;;;;;;;;26.80;99.90;;;;;;5094877;28;19912;-75
2022/08/09 08:14:50;;;;;;;;;;;26.90;99.90;;;;;;5092799;28;19935;-76
2022/08/09 08:17:15;;;;;;;;;;;26.90;99.90;;;;;;5098399;28;20357;-76
2022/08/09 08:19:41;;;;;;;;;;;26.90;99.90;;;;;;5114085;28;20334;-76
2022/08/09 08:22:06;;;;;;;;;;;27.00;99.90;;;;;;5038399;28;1902123;-76
2022/08/09 08:24:32;;;;;;;;;;;27.00;99.90;;;;;;5090990;28;19979;-75
2022/08/09 08:26:58;;;;;;;;;;;27.00;99.90;;;;;;5077761;28;19934;-76
2022/08/09 08:29:24;;;;;;;;;;;27.00;99.90;;;;;;5096360;28;19919;-76
2022/08/09 08:31:50;;;;;;;;;;;27.10;99.90;;;;;;5096405;28;20377;-75
2022/08/09 08:34:15;;;;;;;;;;;27.20;99.90;;;;;;5075977;28;19915;-75
2022/08/09 08:36:41;;;;;;;;;;;27.10;99.90;;;;;;5093282;28;19919;-76
2022/08/09 08:39:06;;;;;;;;;;;27.10;99.90;;;;;;5092987;28;19908;-76
2022/08/09 08:41:32;;;;;;;;;;;27.30;99.90;;;;;;5073509;28;20313;-76
2022/08/09 08:43:58;;;;;;;;;;;27.30;99.90;;;;;;5074437;28;20407;-76
2022/08/09 08:46:28;;;;;;;;;;;27.40;99.90;;;;;;5092205;28;20373;-76
2022/08/09 08:48:54;;;;;;;;;;;27.50;99.90;;;;;;5092561;28;20280;-77
2022/08/09 08:51:21;;;;;;;;;;;27.60;99.90;;;;;;5092078;28;19920;-76
2022/08/09 08:53:47;;;;;;;;;;;27.80;99.90;;;;;;5091377;28;19998;-76
2022/08/09 08:56:13;;;;;;;;;;;27.90;99.90;;;;;;5073386;28;20010;-75
2022/08/09 08:58:39;;;;;;;;;;;27.70;99.90;;;;;;5091195;28;19909;-75
2022/08/09 09:01:05;;;;;;;;;;;27.70;99.90;;;;;;5092108;28;19930;-75
2022/08/09 09:03:34;;;;;;;;;;;27.90;99.90;;;;;;5091860;28;19914;-74
2022/08/09 09:06:00;;;;;;;;;;;28.00;99.90;;;;;;5091567;28;19908;-77
2022/08/09 09:08:30;;;;;;;;;;;27.90;99.90;;;;;;5092059;28;19908;-76
2022/08/09 09:10:56;;;;;;;;;;;27.90;99.90;;;;;;5092568;28;20596;-76
2022/08/09 09:13:22;;;;;;;;;;;27.90;99.90;;;;;;5091463;28;19935;-76
2022/08/09 09:15:48;;;;;;;;;;;27.90;99.90;;;;;;5091007;28;19969;-76
2022/08/09 09:18:14;;;;;;;;;;;28.00;99.90;;;;;;5103028;28;19908;-76
2022/08/09 09:20:42;;;;;;;;;;;28.10;99.90;;;;;;5112458;28;19950;-74
2022/08/09 09:23:08;;;;;;;;;;;28.10;99.90;;;;;;5112358;28;19916;-75
2022/08/09 09:25:33;;;;;;;;;;;28.10;99.90;;;;;;5111584;28;20052;-75
2022/08/09 09:27:59;;;;;;;;;;;28.20;99.90;;;;;;5093756;28;19908;-77
2022/08/09 09:30:25;;;;;;;;;;;28.20;99.90;;;;;;5112231;28;19914;-76
2022/08/09 09:33:10;;;;;;;;;;;28.30;99.90;;;;;;5079527;28;19912;-75
2022/08/09 09:35:50;;;;;;;;;;;28.20;99.90;;;;;;5071615;28;19969;-75
2022/08/09 09:38:16;;;;;;;;;;;28.20;99.90;;;;;;5071447;28;19909;-74
2022/08/09 09:40:44;;;;;;;;;;;28.40;99.90;;;;;;5074069;28;19908;-76
2022/08/09 09:43:16;;;;;;;;;;;28.30;99.90;;;;;;5072892;28;19908;-75
2022/08/09 09:46:03;;;;;;;;;;;28.30;99.90;;;;;;5072174;28;20396;-76
2022/08/09 09:48:28;;;;;;;;;;;28.40;99.90;;;;;;5053044;28;19958;-76
2022/08/09 09:50:54;;;;;;;;;;;28.50;99.90;;;;;;5071030;28;19913;-76
2022/08/09 09:53:24;;;;;;;;;;;28.60;99.90;;;;;;5070962;28;20007;-74
2022/08/09 09:55:54;;;;;;;;;;;28.60;99.90;;;;;;5070560;28;19909;-75
2022/08/09 09:58:19;;;;;;;;;;;28.50;99.90;;;;;;5075833;28;19962;-75
2022/08/09 10:00:49;;;;;;;;;;;28.50;99.90;;;;;;5071283;28;19909;-75
2022/08/09 10:03:15;;;;;;;;;;;28.60;99.90;;;;;;5070794;28;19931;-77
2022/08/09 10:05:57;;;;;;;;;;;28.60;99.90;;;;;;5077103;28;20329;-76
2022/08/09 10:08:23;;;;;;;;;;;28.80;99.90;;;;;;5090993;28;19950;-76
2022/08/09 10:10:49;;;;;;;;;;;28.70;99.90;;;;;;5090837;28;20526;-76
2022/08/09 10:13:14;;;;;;;;;;;28.70;99.90;;;;;;5091215;28;19966;-75
2022/08/09 10:15:48;;;;;;;;;;;28.80;99.90;;;;;;5097748;28;19908;-76
2022/08/09 10:18:13;;;;;;;;;;;28.80;99.90;;;;;;5111240;28;20337;-76
2022/08/09 10:20:39;;;;;;;;;;;28.90;99.90;;;;;;5111505;28;19915;-77
2022/08/09 10:23:15;;;;;;;;;;;28.90;99.90;;;;;;5099402;28;19916;-76
2022/08/09 10:25:42;;;;;;;;;;;29.00;99.90;;;;;;5090628;28;20012;-77
2022/08/09 10:28:08;;;;;;;;;;;28.90;99.90;;;;;;5091227;28;19908;-77
2022/08/09 10:30:34;;;;;;;;;;;28.90;99.90;;;;;;5091500;28;20073;-75
2022/08/09 10:32:59;;;;;;;;;;;29.00;99.90;;;;;;5090919;28;20498;-77
2022/08/09 10:35:25;;;;;;;;;;;29.10;99.90;;;;;;5090564;28;19948;-77
2022/08/09 10:37:52;;;;;;;;;;;29.10;99.90;;;;;;5090425;28;19912;-75
2022/08/09 10:40:18;;;;;;;;;;;29.10;99.90;;;;;;5095171;28;19912;-76
2022/08/09 10:42:44;;;;;;;;;;;29.20;99.90;;;;;;5111447;28;19939;-76
2022/08/09 10:45:11;;;;;;;;;;;29.20;99.90;;;;;;5111099;28;19912;-76
2022/08/09 10:47:47;;;;;;;;;;;29.30;99.90;;;;;;5092469;28;19914;-75
2022/08/09 10:50:21;;;;;;;;;;;29.50;99.90;;;;;;5111007;28;19908;-75
2022/08/09 10:53:03;;;;;;;;;;;29.60;99.90;;;;;;5111692;28;20380;-74
2022/08/09 10:55:29;;;;;;;;;;;29.50;99.90;;;;;;5111201;28;19930;-75
2022/08/09 10:57:56;;;;;;;;;;;29.50;99.90;;;;;;5092142;28;19908;-75
2022/08/09 11:00:27;;;;;;;;;;;29.40;99.90;;;;;;5090533;28;19916;-75
2022/08/09 11:02:53;;;;;;;;;;;29.40;99.90;;;;;;5091317;28;19908;-76
2022/08/09 11:05:21;;;;;;;;;;;29.30;99.90;;;;;;5094615;28;19915;-76
2022/08/09 11:07:47;;;;;;;;;;;29.50;99.90;;;;;;5090568;28;19918;-75
2022/08/09 11:10:13;;;;;;;;;;;29.50;99.90;;;;;;5090747;28;19961;-75
2022/08/09 11:12:39;;;;;;;;;;;29.70;99.90;;;;;;5090442;28;20280;-75
2022/08/09 11:15:24;;;;;;;;;;;29.70;99.90;;;;;;5101417;28;19907;-75
2022/08/09 11:17:51;;;;;;;;;;;29.70;99.90;;;;;;5114778;28;19908;-76
2022/08/09 11:20:19;;;;;;;;;;;29.60;99.90;;;;;;5114606;28;20341;-75
2022/08/09 11:22:44;;;;;;;;;;;29.70;99.90;;;;;;5114321;28;19982;-75
2022/08/09 11:25:11;;;;;;;;;;;29.70;99.90;;;;;;5114686;28;19915;-75
2022/08/09 11:27:42;;;;;;;;;;;29.70;99.90;;;;;;5114724;28;19908;-76
2022/08/09 11:30:12;;;;;;;;;;;29.70;99.90;;;;;;5110679;28;19986;-76
2022/08/09 11:32:46;;;;;;;;;;;29.70;99.90;;;;;;5093635;28;20435;-76
2022/08/09 11:35:20;;;;;;;;;;;29.80;99.90;;;;;;5093942;28;19995;-76
2022/08/09 11:37:47;;;;;;;;;;;29.90;99.90;;;;;;5094387;28;19912;-75
2022/08/09 11:40:15;;;;;;;;;;;29.80;99.90;;;;;;5093598;28;20360;-74
2022/08/09 11:42:43;;;;;;;;;;;29.80;99.90;;;;;;5075205;28;20280;-75
2022/08/09 11:45:19;;;;;;;;;;;30.00;99.90;;;;;;5093294;28;20057;-75
2022/08/09 11:47:45;;;;;;;;;;;30.00;99.90;;;;;;5092232;28;20388;-75
2022/08/09 11:50:11;;;;;;;;;;;30.10;99.90;;;;;;5093247;28;19919;-76
2022/08/09 11:52:55;;;;;;;;;;;30.20;99.90;;;;;;5075111;28;19912;-75
2022/08/09 11:55:31;;;;;;;;;;;30.00;99.90;;;;;;5092690;28;19912;-77
2022/08/09 11:57:57;;;;;;;;;;;30.00;99.90;;;;;;5075358;28;19909;-75
2022/08/09 12:00:23;;;;;;;;;;;29.70;99.90;;;;;;5093517;28;19915;-75
2022/08/09 12:02:49;;;;;;;;;;;29.80;99.90;;;;;;5075013;28;19908;-75
2022/08/09 12:05:15;;;;;;;;;;;29.80;99.90;;;;;;5091949;28;19998;-75
2022/08/09 12:07:40;;;;;;;;;;;29.80;99.90;;;;;;5074731;28;19908;-75
2022/08/09 12:10:06;;;;;;;;;;;29.90;99.90;;;;;;5092923;28;19915;-75
2022/08/09 12:12:47;;;;;;;;;;;29.90;99.90;;;;;;5092857;28;19939;-76
2022/08/09 12:15:19;;;;;;;;;;;29.90;99.90;;;;;;5104080;28;19947;-75
2022/08/09 12:17:47;;;;;;;;;;;30.00;99.90;;;;;;5114272;28;19914;-75
2022/08/09 12:20:16;;;;;;;;;;;30.10;99.90;;;;;;5097027;28;19915;-74
2022/08/09 12:22:42;;;;;;;;;;;30.00;99.90;;;;;;5099279;28;19923;-75
2022/08/09 12:25:11;;;;;;;;;;;30.10;99.90;;;;;;5095527;28;20393;-75
2022/08/09 12:27:37;;;;;;;;;;;30.00;99.90;;;;;;5076756;28;19919;-76
2022/08/09 12:30:02;;;;;;;;;;;30.00;99.90;;;;;;5097369;28;20346;-75
2022/08/09 12:32:28;;;;;;;;;;;30.20;99.90;;;;;;5097708;28;20077;-75
2022/08/09 12:34:58;;;;;;;;;;;30.30;99.90;;;;;;5098054;28;20319;-74
2022/08/09 12:37:31;;;;;;;;;;;30.40;99.90;;;;;;5103209;28;19918;-75
2022/08/09 12:40:06;;;;;;;;;;;30.60;99.90;;;;;;5110305;28;19919;-76
2022/08/09 12:42:31;;;;;;;;;;;30.60;99.90;;;;;;5111033;28;19912;-74
2022/08/09 12:44:57;;;;;;;;;;;30.40;99.90;;;;;;5105589;28;19915;-75
2022/08/09 12:47:23;;;;;;;;;;;30.40;99.90;;;;;;5107273;28;19915;-74
2022/08/09 12:52:37;;;;;;;;;;;30.50;99.90;;;;;;5097361;28;19953;-74
2022/08/09 12:55:03;;;;;;;;;;;30.70;99.90;;;;;;5092409;28;19967;-75
2022/08/09 12:57:42;;;;;;;;;;;30.70;99.90;;;;;;5093539;28;19912;-74
2022/08/09 13:00:11;;;;;;;;;;;30.70;99.90;;;;;;5094297;28;19908;-75
2022/08/09 13:02:48;;;;;;;;;;;30.70;99.90;;;;;;5074802;28;19916;-75
2022/08/09 13:05:15;;;;;;;;;;;30.80;99.90;;;;;;5091566;28;19912;-74
2022/08/09 13:07:40;;;;;;;;;;;30.80;99.90;;;;;;5092089;28;19915;-74
2022/08/09 13:10:06;;;;;;;;;;;30.70;99.90;;;;;;5091936;28;20003;-75
2022/08/09 13:12:32;;;;;;;;;;;30.60;99.90;;;;;;5090949;28;20051;-75
2022/08/09 13:15:04;;;;;;;;;;;30.90;99.90;;;;;;5082435;28;20472;-75
2022/08/09 13:17:30;;;;;;;;;;;30.90;99.90;;;;;;5092488;28;20452;-75
2022/08/09 13:19:56;;;;;;;;;;;30.90;99.90;;;;;;5095789;28;19908;-74
2022/08/09 13:22:23;;;;;;;;;;;30.60;99.90;;;;;;5093859;28;19920;-78
2022/08/09 13:24:57;;;;;;;;;;;30.90;99.90;;;;;;5093842;28;19915;-75
2022/08/09 13:27:30;;;;;;;;;;;30.90;99.90;;;;;;5093489;28;19908;-76
2022/08/09 13:29:59;;;;;;;;;;;31.10;99.90;;;;;;5093739;28;19949;-75
2022/08/09 13:32:41;;;;;;;;;;;31.30;99.80;;;;;;5093803;28;19913;-76
2022/08/09 13:35:08;;;;;;;;;;;31.10;99.90;;;;;;5093984;28;19931;-74
2022/08/09 13:37:33;;;;;;;;;;;31.10;99.50;;;;;;5091407;28;19908;-75
2022/08/09 13:39:59;;;;;;;;;;;31.10;99.70;;;;;;5091455;28;19956;-75
2022/08/09 13:42:25;;;;;;;;;;;31.10;99.80;;;;;;5091766;28;20389;-75
2022/08/09 13:44:50;;;;;;;;;;;31.10;99.70;;;;;;5091638;28;19920;-74
2022/08/09 13:47:16;;;;;;;;;;;31.20;99.80;;;;;;5090557;28;20218;-76
2022/08/09 13:49:43;;;;;;;;;;;31.10;99.60;;;;;;5091755;28;19930;-76
2022/08/09 13:52:08;;;;;;;;;;;30.90;99.80;;;;;;5092386;28;19912;-76
2022/08/09 13:54:34;;;;;;;;;;;31.00;99.70;;;;;;5101760;28;19940;-74
2022/08/09 13:57:00;;;;;;;;;;;30.90;99.90;;;;;;5111606;28;19918;-76
2022/08/09 13:59:25;;;;;;;;;;;30.90;99.90;;;;;;5127801;28;20254;-76
2022/08/09 14:01:51;;;;;;;;;;;30.90;99.80;;;;;;5128584;28;19943;-76
2022/08/09 14:04:17;;;;;;;;;;;30.80;99.90;;;;;;5113259;28;19916;-74
2022/08/09 14:06:51;;;;;;;;;;;31.00;99.80;;;;;;5106768;28;19920;-75
2022/08/09 14:09:16;;;;;;;;;;;31.20;99.70;;;;;;5107717;28;19953;-76
2022/08/09 14:11:42;;;;;;;;;;;31.10;99.90;;;;;;5076588;28;20011;-75
2022/08/09 14:14:08;;;;;;;;;;;31.10;99.60;;;;;;5094715;28;19908;-75
2022/08/09 14:16:33;;;;;;;;;;;31.10;99.80;;;;;;5102723;28;19953;-76
2022/08/09 14:18:59;;;;;;;;;;;30.90;99.90;;;;;;5111535;28;19963;-76
2022/08/09 14:21:25;;;;;;;;;;;31.00;99.70;;;;;;5096960;28;19916;-76